Time;durP1;ratioP1;P1;durP2;ratioP2;P2;SDS_P1;SDS_P2;PMS_P1;PMS_P2;Temp;Humidity;BMP_temperature;BMP_pressure;BME280_temperature;BME280_humidity;BME280_pressure;Samples;Min_cycle;Max_cycle;Signal;HPM_P1;HPM_P2
2021/04/28 00:00:34;;;;;;;6.70;6.10;;;11.30;70.50;;;;;;5013176;28;20166;-55
2021/04/28 00:03:01;;;;;;;5.93;5.33;;;11.20;70.50;;;;;;5012883;28;20542;-57
2021/04/28 00:05:27;;;;;;;6.63;5.90;;;11.30;71.10;;;;;;5012925;28;20435;-57
2021/04/28 00:07:53;;;;;;;8.53;6.13;;;11.20;70.80;;;;;;5013063;28;20434;-57
2021/04/28 00:10:22;;;;;;;5.83;5.23;;;11.20;71.40;;;;;;5013356;28;20187;-57
2021/04/28 00:12:48;;;;;;;5.13;4.63;;;11.30;71.70;;;;;;5012641;28;20425;-56
2021/04/28 00:15:19;;;;;;;6.23;5.73;;;11.30;72.00;;;;;;5013320;28;20467;-56
2021/04/28 00:17:46;;;;;;;6.10;5.50;;;11.20;71.70;;;;;;5012903;28;20196;-57
2021/04/28 00:20:13;;;;;;;7.37;5.70;;;11.20;72.10;;;;;;5014207;28;20934;-56
2021/04/28 00:22:40;;;;;;;9.03;5.80;;;11.20;72.20;;;;;;5013338;28;20469;-56
2021/04/28 00:25:09;;;;;;;6.87;5.50;;;11.20;73.20;;;;;;5016171;28;20418;-57
2021/04/28 00:27:35;;;;;;;6.37;5.60;;;11.10;72.90;;;;;;5015283;28;20418;-57
2021/04/28 00:30:04;;;;;;;8.47;5.30;;;11.00;73.00;;;;;;5014300;28;20407;-56
2021/04/28 00:32:30;;;;;;;16.30;6.20;;;10.90;73.30;;;;;;5012600;28;20933;-56
2021/04/28 00:34:56;;;;;;;7.60;5.50;;;10.90;73.40;;;;;;5012939;28;20410;-57
2021/04/28 00:37:22;;;;;;;6.43;5.00;;;10.80;74.20;;;;;;5013122;28;20172;-57
2021/04/28 00:39:47;;;;;;;5.83;5.30;;;10.70;74.10;;;;;;5013090;28;20457;-54
2021/04/28 00:42:15;;;;;;;6.80;5.50;;;10.70;74.50;;;;;;5013369;28;20296;-57
2021/04/28 00:44:42;;;;;;;6.40;5.57;;;10.70;74.90;;;;;;5016293;28;20172;-56
2021/04/28 00:47:07;;;;;;;8.10;5.50;;;10.70;75.00;;;;;;5016342;28;20774;-56
2021/04/28 00:49:33;;;;;;;7.70;6.80;;;10.70;75.10;;;;;;5016259;28;20466;-57
2021/04/28 00:51:59;;;;;;;7.87;6.53;;;10.60;75.10;;;;;;5016276;28;20197;-57
2021/04/28 00:54:26;;;;;;;6.50;5.70;;;10.60;75.40;;;;;;5016325;28;20260;-57
2021/04/28 00:56:55;;;;;;;7.07;6.00;;;10.60;75.60;;;;;;5015785;28;20408;-58
2021/04/28 00:59:20;;;;;;;8.13;6.20;;;10.60;75.60;;;;;;5016259;28;20406;-54
2021/04/28 01:01:46;;;;;;;9.90;6.00;;;10.60;75.70;;;;;;5015756;28;20461;-56
2021/04/28 01:04:12;;;;;;;8.13;5.90;;;10.60;75.50;;;;;;5016082;28;20189;-55
2021/04/28 01:06:38;;;;;;;7.50;5.93;;;10.50;75.40;;;;;;5014957;28;20668;-56
2021/04/28 01:09:04;;;;;;;6.97;6.27;;;10.50;75.70;;;;;;5016929;28;20629;-54
2021/04/28 01:11:30;;;;;;;6.77;6.10;;;10.50;76.00;;;;;;5015789;28;20428;-56
2021/04/28 01:13:56;;;;;;;8.93;6.00;;;10.50;76.10;;;;;;5015586;28;20419;-54
2021/04/28 01:16:23;;;;;;;9.23;6.50;;;10.40;76.40;;;;;;5015940;28;20410;-54
2021/04/28 01:18:49;;;;;;;6.50;5.90;;;10.40;76.60;;;;;;5012543;28;20757;-57
2021/04/28 01:21:15;;;;;;;7.20;6.50;;;10.20;77.70;;;;;;4995988;28;20428;-57
2021/04/28 01:23:41;;;;;;;8.33;6.23;;;10.20;78.10;;;;;;4996357;28;20444;-55
2021/04/28 01:26:08;;;;;;;7.40;5.97;;;10.30;78.50;;;;;;4995875;28;20429;-55
2021/04/28 01:28:35;;;;;;;6.27;5.67;;;10.30;78.60;;;;;;4995810;28;20177;-57
2021/04/28 01:31:11;;;;;;;7.10;6.40;;;10.30;79.40;;;;;;4995750;28;20402;-57
2021/04/28 01:33:41;;;;;;;7.30;5.90;;;10.30;79.90;;;;;;4995716;28;20445;-57
2021/04/28 01:36:13;;;;;;;6.40;5.80;;;10.30;80.20;;;;;;4997405;28;20434;-57
2021/04/28 01:38:41;;;;;;;7.17;5.90;;;10.30;79.90;;;;;;5015508;28;20447;-57
2021/04/28 01:41:08;;;;;;;6.80;6.03;;;10.20;80.80;;;;;;5015182;28;20454;-56
2021/04/28 01:43:35;;;;;;;6.17;5.63;;;10.20;80.40;;;;;;5043518;23;20513;-54
2021/04/28 01:46:02;;;;;;;7.13;5.97;;;10.20;80.60;;;;;;5034173;28;20420;-56
2021/04/28 01:48:28;;;;;;;6.87;6.17;;;10.30;81.40;;;;;;5034903;28;20395;-53
2021/04/28 01:50:55;;;;;;;5.93;5.43;;;10.30;81.60;;;;;;5035447;28;20484;-54
2021/04/28 01:53:23;;;;;;;10.20;6.97;;;10.20;81.80;;;;;;5034174;28;20421;-53
2021/04/28 01:55:51;;;;;;;8.17;5.73;;;10.20;82.10;;;;;;5034970;28;20901;-53
2021/04/28 01:58:17;;;;;;;8.20;6.37;;;10.20;82.70;;;;;;5016871;28;20410;-52
2021/04/28 02:00:44;;;;;;;8.23;6.33;;;10.20;83.20;;;;;;5034940;28;20416;-53
2021/04/28 02:03:10;;;;;;;6.97;6.27;;;10.10;83.90;;;;;;5034601;28;20470;-52
2021/04/28 02:05:35;;;;;;;6.93;6.10;;;10.10;83.90;;;;;;5034763;28;20400;-53
2021/04/28 02:08:01;;;;;;;6.80;6.10;;;10.10;84.10;;;;;;5034998;28;20195;-56
2021/04/28 02:10:27;;;;;;;6.97;6.27;;;10.20;84.70;;;;;;5021720;28;20197;-52
2021/04/28 02:12:53;;;;;;;9.20;6.60;;;10.10;84.90;;;;;;5052961;28;20478;-51
2021/04/28 02:15:23;;;;;;;8.27;7.37;;;10.10;85.10;;;;;;5040921;28;20416;-54
2021/04/28 02:17:54;;;;;;;7.20;6.50;;;10.20;84.60;;;;;;5034926;28;20433;-54
2021/04/28 02:20:20;;;;;;;6.93;6.23;;;10.10;85.60;;;;;;5034809;28;20447;-54
2021/04/28 02:22:47;;;;;;;7.53;6.83;;;10.10;85.70;;;;;;5034546;28;20438;-55
2021/04/28 02:25:13;;;;;;;11.13;6.93;;;10.00;86.60;;;;;;5034378;28;20417;-56
2021/04/28 02:27:39;;;;;;;7.87;6.93;;;9.90;88.20;;;;;;5034319;28;20405;-55
2021/04/28 02:30:10;;;;;;;7.43;6.73;;;9.90;88.80;;;;;;5034328;28;20882;-52
2021/04/28 02:32:36;;;;;;;9.10;7.20;;;9.90;89.20;;;;;;5034237;28;20516;-52
2021/04/28 02:35:03;;;;;;;10.83;6.80;;;9.80;90.00;;;;;;5034234;28;20554;-55
2021/04/28 02:37:30;;;;;;;8.13;7.10;;;9.80;90.10;;;;;;5034262;28;20172;-56
2021/04/28 02:40:04;;;;;;;7.63;6.70;;;9.80;90.40;;;;;;5034927;28;20474;-52
2021/04/28 02:42:31;;;;;;;7.57;6.77;;;9.70;90.60;;;;;;5033695;28;20471;-52
2021/04/28 02:44:59;;;;;;;8.30;7.27;;;9.70;90.70;;;;;;5034101;28;20418;-53
2021/04/28 02:47:27;;;;;;;9.07;7.90;;;9.60;91.10;;;;;;5034337;28;20403;-54
2021/04/28 02:49:53;;;;;;;8.73;7.47;;;9.70;91.30;;;;;;5016472;28;20902;-52
2021/04/28 02:52:21;;;;;;;9.60;6.70;;;9.70;91.40;;;;;;5033813;28;20423;-53
2021/04/28 02:54:48;;;;;;;7.70;6.83;;;9.70;91.40;;;;;;5034031;28;20404;-52
2021/04/28 02:57:14;;;;;;;12.63;8.07;;;9.70;91.50;;;;;;5033979;28;20407;-52
2021/04/28 02:59:40;;;;;;;8.13;7.07;;;9.60;91.50;;;;;;5016372;28;20413;-52
2021/04/28 03:02:09;;;;;;;9.37;8.37;;;9.70;91.80;;;;;;5033683;28;20162;-52
2021/04/28 03:04:40;;;;;;;8.63;7.87;;;9.60;92.00;;;;;;5033865;28;20178;-52
2021/04/28 03:07:06;;;;;;;11.30;8.97;;;9.70;91.90;;;;;;5032965;28;20403;-53
2021/04/28 03:09:33;;;;;;;13.20;7.93;;;9.70;92.00;;;;;;5033640;28;20480;-56
2021/04/28 03:12:00;;;;;;;8.07;7.33;;;9.60;92.20;;;;;;5033083;28;20391;-50
2021/04/28 03:14:25;;;;;;;10.13;8.30;;;9.50;92.80;;;;;;5033320;28;20408;-53
2021/04/28 03:16:51;;;;;;;8.63;7.43;;;9.40;93.30;;;;;;5033809;28;20397;-54
2021/04/28 03:19:17;;;;;;;8.50;7.03;;;9.40;93.50;;;;;;5033568;28;20201;-52
2021/04/28 03:21:47;;;;;;;10.97;7.73;;;9.30;94.00;;;;;;5033219;28;20464;-54
2021/04/28 03:24:13;;;;;;;8.53;7.70;;;9.20;94.10;;;;;;5033678;28;20249;-56
2021/04/28 03:26:39;;;;;;;9.07;8.00;;;9.20;94.10;;;;;;5033948;28;20410;-56
2021/04/28 03:29:04;;;;;;;11.30;8.57;;;9.20;94.30;;;;;;5033201;28;20165;-55
2021/04/28 03:31:30;;;;;;;10.40;8.33;;;9.20;94.60;;;;;;5033372;28;20172;-52
2021/04/28 03:33:55;;;;;;;9.90;8.23;;;9.20;94.90;;;;;;5014514;28;20195;-55
2021/04/28 03:36:21;;;;;;;10.37;8.17;;;9.20;95.20;;;;;;5033323;28;20160;-53
2021/04/28 03:38:47;;;;;;;8.20;7.40;;;9.20;95.20;;;;;;5033517;28;20639;-54
2021/04/28 03:41:13;;;;;;;9.87;9.00;;;9.20;95.40;;;;;;5033453;28;20198;-52
2021/04/28 03:43:39;;;;;;;10.80;8.93;;;9.10;95.90;;;;;;5033019;28;21008;-54
2021/04/28 03:46:04;;;;;;;11.00;9.00;;;9.10;96.10;;;;;;5033388;28;20513;-55
2021/04/28 03:48:30;;;;;;;10.00;8.20;;;9.00;96.40;;;;;;5033162;28;20168;-53
2021/04/28 03:50:55;;;;;;;13.70;9.23;;;9.00;96.50;;;;;;5033193;28;20312;-53
2021/04/28 03:53:21;;;;;;;9.67;8.77;;;9.00;96.50;;;;;;5033367;28;20695;-56
2021/04/28 03:55:47;;;;;;;9.60;7.93;;;9.00;96.50;;;;;;5033348;28;20707;-52
2021/04/28 03:58:13;;;;;;;11.33;9.20;;;8.90;96.70;;;;;;5015144;28;20217;-53
2021/04/28 04:00:38;;;;;;;10.53;8.00;;;9.00;96.80;;;;;;5033019;28;20603;-54
2021/04/28 04:03:04;;;;;;;11.47;8.60;;;9.00;96.90;;;;;;5033163;28;20195;-52
2021/04/28 04:05:31;;;;;;;9.43;8.53;;;9.00;96.90;;;;;;5033065;28;20169;-53
2021/04/28 04:07:57;;;;;;;10.77;9.50;;;9.00;97.10;;;;;;5033133;28;20406;-54
2021/04/28 04:10:23;;;;;;;9.83;8.83;;;9.00;97.30;;;;;;5032970;28;20407;-51
2021/04/28 04:12:48;;;;;;;10.70;9.20;;;9.10;97.40;;;;;;5032691;28;20513;-51
2021/04/28 04:15:14;;;;;;;9.23;8.17;;;9.10;97.40;;;;;;5033432;28;20651;-51
2021/04/28 04:17:39;;;;;;;9.90;7.93;;;9.10;97.50;;;;;;5034680;28;20174;-51
2021/04/28 04:20:06;;;;;;;10.57;9.30;;;9.00;97.60;;;;;;5037391;28;20202;-52
2021/04/28 04:22:32;;;;;;;11.73;9.13;;;9.00;97.70;;;;;;5036563;28;20188;-53
2021/04/28 04:24:57;;;;;;;11.17;9.60;;;9.00;98.00;;;;;;5037005;28;20460;-54
2021/04/28 04:27:23;;;;;;;11.83;10.43;;;9.00;98.20;;;;;;5036644;28;20165;-57
2021/04/28 04:29:49;;;;;;;13.20;10.90;;;9.10;98.10;;;;;;5036719;28;20557;-53
2021/04/28 04:32:14;;;;;;;13.53;9.40;;;9.10;98.40;;;;;;5036794;28;20194;-53
2021/04/28 04:34:40;;;;;;;14.60;11.40;;;9.20;98.30;;;;;;5036179;28;20175;-51
2021/04/28 04:37:06;;;;;;;12.37;11.07;;;9.10;98.70;;;;;;5036509;28;20252;-50
2021/04/28 04:39:31;;;;;;;10.90;9.63;;;9.00;98.80;;;;;;5036626;28;20598;-51
2021/04/28 04:41:57;;;;;;;14.43;12.07;;;9.00;99.00;;;;;;5037701;28;20182;-52
2021/04/28 04:44:22;;;;;;;14.67;10.50;;;9.00;99.50;;;;;;5018902;28;20199;-54
2021/04/28 04:46:48;;;;;;;11.30;10.10;;;9.10;99.40;;;;;;5036627;28;20177;-52
2021/04/28 04:49:14;;;;;;;10.57;9.47;;;9.10;99.40;;;;;;5036032;28;20258;-52
2021/04/28 04:51:40;;;;;;;14.03;11.13;;;9.20;99.20;;;;;;5036113;28;20168;-53
2021/04/28 04:54:06;;;;;;;13.30;11.03;;;9.30;99.10;;;;;;5036642;28;20583;-52
2021/04/28 04:56:32;;;;;;;13.40;10.27;;;9.40;99.10;;;;;;5038895;28;20506;-57
2021/04/28 04:58:57;;;;;;;13.13;10.57;;;9.40;99.20;;;;;;5036669;28;20428;-53
2021/04/28 05:01:23;;;;;;;12.40;10.33;;;9.40;99.40;;;;;;5035626;28;20411;-51
2021/04/28 05:03:49;;;;;;;15.63;10.63;;;9.50;99.50;;;;;;5044345;28;20201;-53
2021/04/28 05:06:15;;;;;;;15.53;11.03;;;9.50;99.70;;;;;;5055660;28;20172;-53
2021/04/28 05:08:41;;;;;;;13.10;9.90;;;9.40;99.60;;;;;;5055895;28;20173;-53
2021/04/28 05:11:06;;;;;;;13.50;10.40;;;9.40;99.90;;;;;;5056164;28;20406;-52
2021/04/28 05:13:32;;;;;;;14.33;10.37;;;9.50;99.80;;;;;;5055497;28;20320;-52
2021/04/28 05:15:57;;;;;;;13.00;9.60;;;9.50;99.70;;;;;;5041178;28;20259;-55
2021/04/28 05:18:23;;;;;;;11.93;9.87;;;9.60;99.70;;;;;;5035990;28;20169;-53
2021/04/28 05:20:49;;;;;;;13.93;11.00;;;9.70;99.80;;;;;;5035830;28;20519;-55
2021/04/28 05:23:15;;;;;;;12.33;10.23;;;9.60;99.90;;;;;;5035807;28;20203;-51
2021/04/28 05:25:40;;;;;;;12.50;9.97;;;9.60;99.90;;;;;;5035661;28;20171;-56
2021/04/28 05:28:06;;;;;;;14.53;11.43;;;9.70;99.90;;;;;;5034438;28;20407;-53
2021/04/28 05:30:32;;;;;;;12.23;10.13;;;9.70;99.90;;;;;;5035645;28;20171;-54
2021/04/28 05:32:58;;;;;;;12.93;9.93;;;9.80;99.90;;;;;;5036181;28;20254;-55
2021/04/28 05:35:23;;;;;;;13.17;10.67;;;9.90;99.90;;;;;;5035618;28;20169;-54
2021/04/28 05:37:50;;;;;;;13.23;10.93;;;10.00;99.30;;;;;;5018791;28;20411;-57
2021/04/28 05:40:16;;;;;;;16.63;11.50;;;10.10;99.20;;;;;;5037978;28;20676;-57
2021/04/28 05:42:42;;;;;;;15.20;12.00;;;10.20;99.00;;;;;;5036291;28;20463;-56
2021/04/28 05:45:09;;;;;;;14.50;11.03;;;10.30;98.70;;;;;;5035390;28;20411;-53
2021/04/28 05:47:35;;;;;;;14.47;11.23;;;10.50;98.50;;;;;;5035442;28;20168;-55
2021/04/28 05:50:02;;;;;;;12.33;10.23;;;10.80;98.20;;;;;;5035167;28;20486;-53
2021/04/28 05:52:27;;;;;;;13.73;12.33;;;11.00;97.30;;;;;;5034998;28;20198;-55
2021/04/28 05:54:53;;;;;;;18.13;11.50;;;11.20;96.70;;;;;;5035101;28;20856;-56
2021/04/28 05:57:18;;;;;;;11.27;10.17;;;11.40;96.10;;;;;;5017607;28;20228;-53
2021/04/28 05:59:44;;;;;;;13.83;10.17;;;11.60;95.40;;;;;;5034871;28;20167;-52
2021/04/28 06:02:11;;;;;;;12.33;10.70;;;11.80;94.90;;;;;;5035221;28;20184;-53
2021/04/28 06:04:37;;;;;;;11.33;10.17;;;12.00;94.80;;;;;;5034668;28;20451;-55
2021/04/28 06:07:03;;;;;;;13.13;10.37;;;12.10;94.30;;;;;;5034707;28;20467;-52
2021/04/28 06:09:29;;;;;;;11.10;10.00;;;12.30;93.80;;;;;;5035089;28;20949;-52
2021/04/28 06:11:54;;;;;;;11.03;9.90;;;12.40;94.10;;;;;;5035056;28;20164;-54
2021/04/28 06:15:31;;;;;;;13.27;10.00;;;12.40;92.90;;;;;;5034671;28;20193;-52
2021/04/28 06:17:26;;;;;;;12.10;9.83;;;12.50;93.30;;;;;;5021623;28;20186;-56
2021/04/28 06:19:52;;;;;;;13.43;11.77;;;12.60;92.70;;;;;;5034667;28;20402;-53
2021/04/28 06:22:17;;;;;;;12.60;10.77;;;12.70;92.70;;;;;;5034407;28;20684;-50
2021/04/28 06:24:43;;;;;;;12.53;9.57;;;12.80;92.40;;;;;;5034626;28;20237;-53
2021/04/28 06:27:08;;;;;;;13.83;11.37;;;12.90;92.40;;;;;;5034425;28;20245;-52
2021/04/28 06:29:34;;;;;;;14.53;11.80;;;13.00;92.10;;;;;;5034782;28;20168;-52
2021/04/28 06:32:00;;;;;;;17.47;11.53;;;12.90;91.70;;;;;;5035056;28;20173;-55
2021/04/28 06:34:25;;;;;;;18.03;11.37;;;12.90;91.70;;;;;;5034837;28;20171;-52
2021/04/28 06:36:51;;;;;;;13.67;12.27;;;12.90;91.90;;;;;;5034715;28;20176;-53
2021/04/28 06:39:17;;;;;;;12.60;10.80;;;13.00;92.10;;;;;;5034408;28;20202;-55
2021/04/28 06:41:42;;;;;;;15.77;11.53;;;13.00;92.20;;;;;;5034237;28;20236;-60
2021/04/28 06:44:08;;;;;;;16.47;13.37;;;13.00;92.10;;;;;;5034087;28;20223;-61
2021/04/28 06:46:34;;;;;;;17.83;12.73;;;13.10;92.30;;;;;;5034132;28;20160;-60
2021/04/28 06:49:00;;;;;;;17.70;13.00;;;13.30;92.30;;;;;;5033880;28;20161;-59
2021/04/28 06:51:26;;;;;;;15.50;13.40;;;13.40;91.60;;;;;;5033634;28;20456;-60
2021/04/28 06:53:52;;;;;;;17.40;14.20;;;13.50;91.20;;;;;;5033664;28;20187;-60
2021/04/28 06:56:17;;;;;;;18.80;12.63;;;13.40;91.60;;;;;;5016195;28;20177;-60
2021/04/28 06:58:45;;;;;;;17.17;12.83;;;13.40;91.40;;;;;;5033691;28;20415;-60
2021/04/28 07:01:11;;;;;;;20.33;12.20;;;13.40;91.90;;;;;;5034140;28;20257;-61
2021/04/28 07:03:37;;;;;;;17.10;12.07;;;13.50;91.40;;;;;;5033416;28;20457;-61
2021/04/28 07:06:05;;;;;;;18.93;13.70;;;13.50;90.50;;;;;;5033611;28;20409;-60
2021/04/28 07:08:30;;;;;;;15.90;13.03;;;13.60;90.30;;;;;;5028070;28;20464;-60
2021/04/28 07:10:56;;;;;;;13.50;11.63;;;13.50;90.40;;;;;;5015794;28;20820;-61
2021/04/28 07:13:22;;;;;;;13.73;12.30;;;13.80;90.50;;;;;;5032854;28;20242;-59
2021/04/28 07:15:47;;;;;;;14.67;12.20;;;14.10;90.50;;;;;;5033402;28;20167;-60
2021/04/28 07:18:13;;;;;;;12.63;11.43;;;14.20;89.20;;;;;;5033612;28;20173;-61
2021/04/28 07:20:39;;;;;;;15.33;13.67;;;14.20;89.50;;;;;;5033559;28;20176;-59
2021/04/28 07:23:04;;;;;;;15.27;12.47;;;14.40;89.80;;;;;;5033223;28;20209;-61
2021/04/28 07:25:30;;;;;;;13.97;12.20;;;14.60;90.00;;;;;;5033528;28;20165;-61
2021/04/28 07:27:55;;;;;;;18.50;12.37;;;14.70;87.30;;;;;;5033261;28;20272;-61
2021/04/28 07:30:21;;;;;;;16.07;12.13;;;14.80;87.00;;;;;;5031481;28;20213;-61
2021/04/28 07:32:47;;;;;;;14.47;12.50;;;15.00;87.10;;;;;;5032844;28;20202;-61
2021/04/28 07:35:14;;;;;;;15.23;13.30;;;15.10;85.10;;;;;;5033245;28;20249;-61
2021/04/28 07:37:40;;;;;;;17.53;12.37;;;15.10;84.50;;;;;;5033487;28;20174;-61
2021/04/28 07:40:08;;;;;;;14.13;12.47;;;15.20;84.30;;;;;;5033297;28;20413;-60
2021/04/28 07:45:04;;;;;;;13.00;11.70;;;15.10;84.60;;;;;;5011947;28;20510;-57
2021/04/28 07:47:30;;;;;;;13.93;12.53;;;15.20;83.80;;;;;;5012530;28;20480;-56
2021/04/28 07:49:56;;;;;;;15.67;12.33;;;15.20;83.00;;;;;;5013418;28;20420;-55
2021/04/28 07:52:21;;;;;;;17.77;12.80;;;15.20;83.60;;;;;;5014870;28;20156;-59
2021/04/28 07:54:47;;;;;;;15.00;12.00;;;15.40;84.20;;;;;;5015980;28;20273;-59
2021/04/28 07:57:13;;;;;;;15.67;13.47;;;15.70;82.30;;;;;;5008482;28;20273;-57
2021/04/28 07:59:39;;;;;;;13.53;11.83;;;15.80;83.50;;;;;;5016936;28;20203;-57
2021/04/28 08:02:05;;;;;;;16.20;12.77;;;15.80;83.50;;;;;;5032630;28;20913;-59
2021/04/28 08:04:30;;;;;;;15.10;13.07;;;15.90;82.50;;;;;;5036753;28;20199;-59
2021/04/28 08:06:56;;;;;;;14.83;12.07;;;16.00;83.00;;;;;;5036866;28;20171;-57
2021/04/28 08:09:21;;;;;;;13.20;11.90;;;16.00;82.80;;;;;;5036873;28;20176;-57
2021/04/28 08:11:47;;;;;;;14.80;13.30;;;16.00;82.50;;;;;;5036808;28;20256;-57
2021/04/28 08:14:13;;;;;;;14.77;11.70;;;16.00;82.30;;;;;;5021028;28;20227;-57
2021/04/28 08:16:38;;;;;;;16.63;12.73;;;16.10;82.10;;;;;;5016871;28;20174;-57
2021/04/28 08:19:04;;;;;;;16.10;13.70;;;16.00;82.80;;;;;;5016559;28;20227;-58
2021/04/28 08:21:31;;;;;;;16.73;12.83;;;16.00;83.10;;;;;;5017342;28;20171;-56
2021/04/28 08:23:56;;;;;;;17.10;13.03;;;16.10;81.70;;;;;;5014753;28;20461;-56
2021/04/28 08:26:22;;;;;;;17.50;13.50;;;16.30;81.40;;;;;;5006217;28;20436;-58
2021/04/28 08:28:49;;;;;;;23.53;14.30;;;16.50;81.20;;;;;;5016346;28;20217;-58
2021/04/28 08:31:17;;;;;;;16.80;13.10;;;16.60;80.70;;;;;;5015518;28;20197;-58
2021/04/28 08:33:43;;;;;;;15.53;12.50;;;16.50;81.50;;;;;;5016158;28;20477;-59
2021/04/28 08:36:09;;;;;;;14.23;12.67;;;16.60;81.30;;;;;;5015676;28;20433;-58
2021/04/28 08:38:37;;;;;;;14.20;12.20;;;16.80;80.60;;;;;;5016692;28;20418;-58
2021/04/28 08:41:04;;;;;;;19.10;12.80;;;17.00;79.40;;;;;;5016459;28;20832;-57
2021/04/28 08:43:30;;;;;;;15.97;14.10;;;17.20;79.50;;;;;;5016131;28;20863;-58
2021/04/28 08:45:56;;;;;;;18.60;14.93;;;17.20;79.10;;;;;;5016326;28;20422;-58
2021/04/28 08:48:22;;;;;;;14.17;12.77;;;17.30;79.20;;;;;;5016638;28;20501;-57
2021/04/28 08:50:49;;;;;;;14.93;13.37;;;17.50;78.80;;;;;;5016243;28;20651;-59
2021/04/28 08:53:16;;;;;;;17.80;12.87;;;17.60;78.90;;;;;;5016628;28;20526;-58
2021/04/28 08:55:42;;;;;;;19.33;13.53;;;17.70;77.30;;;;;;5017142;28;20442;-58
2021/04/28 08:58:09;;;;;;;16.83;13.33;;;17.70;77.60;;;;;;5016378;28;20411;-58
2021/04/28 09:00:35;;;;;;;15.37;13.00;;;17.80;76.90;;;;;;5016085;28;20413;-58
2021/04/28 09:03:02;;;;;;;23.07;14.00;;;17.90;76.40;;;;;;5015983;28;20462;-58
2021/04/28 09:05:28;;;;;;;14.70;12.77;;;17.70;77.60;;;;;;5015732;28;20414;-58
2021/04/28 09:07:54;;;;;;;21.67;13.20;;;17.80;76.90;;;;;;5016123;28;20812;-58
2021/04/28 09:10:22;;;;;;;14.50;12.73;;;18.00;75.70;;;;;;5015754;28;20406;-58
2021/04/28 09:12:57;;;;;;;21.27;14.33;;;18.10;75.60;;;;;;5015671;28;20282;-58
2021/04/28 09:15:43;;;;;;;14.17;12.73;;;17.90;74.80;;;;;;5019051;28;20419;-58
2021/04/28 09:18:33;;;;;;;14.60;12.97;;;18.20;74.40;;;;;;5015782;28;20414;-57
2021/04/28 09:21:00;;;;;;;19.10;12.63;;;18.40;74.20;;;;;;5015531;28;20395;-57
2021/04/28 09:23:37;;;;;;;18.43;12.40;;;18.50;76.30;;;;;;5015706;28;20469;-59
2021/04/28 09:26:04;;;;;;;14.30;12.80;;;18.70;75.30;;;;;;5015826;28;20402;-57
2021/04/28 09:28:35;;;;;;;19.03;12.53;;;18.80;73.20;;;;;;5015559;28;20415;-57
2021/04/28 09:31:07;;;;;;;15.37;13.20;;;18.90;72.40;;;;;;5015820;28;20387;-59
2021/04/28 09:33:41;;;;;;;16.03;12.70;;;19.00;72.90;;;;;;5015403;28;20434;-59
2021/04/28 09:36:11;;;;;;;17.60;12.67;;;19.10;70.00;;;;;;5015066;28;20427;-58
2021/04/28 09:38:55;;;;;;;16.17;12.90;;;19.10;69.50;;;;;;5015618;28;20395;-58
2021/04/28 09:41:44;;;;;;;14.50;12.20;;;19.10;70.40;;;;;;5015071;28;20407;-59
2021/04/28 09:44:19;;;;;;;14.17;12.40;;;19.10;69.40;;;;;;5014462;28;20987;-58
2021/04/28 09:47:11;;;;;;;14.30;12.43;;;19.30;71.00;;;;;;5015496;28;20406;-59
2021/04/28 09:50:00;;;;;;;13.43;11.93;;;19.40;67.50;;;;;;5015504;28;20457;-57
2021/04/28 09:52:36;;;;;;;14.80;11.80;;;19.70;68.50;;;;;;5015230;28;20395;-59
2021/04/28 09:55:05;;;;;;;17.43;11.30;;;19.60;67.00;;;;;;5015107;28;20418;-58
2021/04/28 09:58:00;;;;;;;14.53;11.30;;;19.60;66.20;;;;;;5015077;28;20745;-59
2021/04/28 10:00:28;;;;;;;13.57;11.60;;;20.00;66.40;;;;;;4998067;28;20879;-59
2021/04/28 10:03:05;;;;;;;13.57;11.87;;;20.20;65.00;;;;;;5014874;28;20474;-58
2021/04/28 10:05:35;;;;;;;14.57;12.27;;;20.30;64.50;;;;;;5014541;28;20418;-59
2021/04/28 10:08:07;;;;;;;15.17;11.83;;;20.50;62.10;;;;;;5015068;28;20398;-58
2021/04/28 10:10:34;;;;;;;11.00;9.83;;;20.40;60.30;;;;;;5015132;28;20411;-59
2021/04/28 10:12:59;;;;;;;13.00;10.33;;;20.60;60.50;;;;;;5014399;28;20437;-59
2021/04/28 10:15:25;;;;;;;11.80;9.50;;;20.80;59.20;;;;;;5014158;28;20510;-59
2021/04/28 10:17:52;;;;;;;13.43;10.53;;;20.90;60.00;;;;;;5014560;28;20170;-58
2021/04/28 10:20:19;;;;;;;11.40;10.20;;;21.20;58.70;;;;;;5014715;28;20203;-59
2021/04/28 10:22:47;;;;;;;11.20;9.60;;;21.10;57.80;;;;;;5014325;28;20517;-59
2021/04/28 10:25:14;;;;;;;10.73;9.60;;;21.20;58.80;;;;;;5014842;28;20888;-59
2021/04/28 10:27:41;;;;;;;13.70;11.10;;;21.10;56.50;;;;;;5014642;28;20489;-59
2021/04/28 10:30:08;;;;;;;12.63;10.10;;;21.10;57.30;;;;;;5014366;28;20810;-58
2021/04/28 10:32:36;;;;;;;11.13;9.73;;;20.80;56.80;;;;;;5014047;28;20415;-57
2021/04/28 10:35:12;;;;;;;12.80;11.13;;;20.90;58.70;;;;;;5013933;28;20431;-58
2021/04/28 10:37:41;;;;;;;13.70;10.60;;;20.90;55.10;;;;;;5013887;28;20486;-59
2021/04/28 10:40:15;;;;;;;13.80;10.23;;;20.80;55.40;;;;;;5014096;28;20727;-55
2021/04/28 10:42:41;;;;;;;11.03;8.90;;;20.80;53.70;;;;;;5014073;28;20472;-59
2021/04/28 10:45:24;;;;;;;12.70;10.10;;;20.70;52.90;;;;;;5013648;28;20427;-58
2021/04/28 10:47:53;;;;;;;10.10;8.90;;;20.80;53.70;;;;;;5014257;28;20486;-59
2021/04/28 10:50:31;;;;;;;12.63;9.53;;;20.70;53.60;;;;;;5013780;28;20502;-58
2021/04/28 10:53:03;;;;;;;11.20;8.37;;;20.70;53.30;;;;;;5014013;28;20469;-59
2021/04/28 10:55:51;;;;;;;12.53;9.10;;;20.80;53.30;;;;;;5014093;28;20402;-59
2021/04/28 10:58:24;;;;;;;12.83;9.83;;;20.90;53.00;;;;;;5013458;28;20398;-58
2021/04/28 11:00:50;;;;;;;14.23;8.87;;;22.70;52.00;;;;;;5013852;28;20407;-59
2021/04/28 11:03:52;;;;;;;9.40;8.43;;;24.00;47.70;;;;;;5013426;28;20457;-59
2021/04/28 11:09:06;;;;;;;9.70;8.70;;;24.80;44.00;;;;;;5008425;28;20433;-59
2021/04/28 11:11:31;;;;;;;12.60;8.67;;;25.70;43.40;;;;;;5013812;28;20160;-59
2021/04/28 11:14:17;;;;;;;11.07;8.77;;;26.20;42.10;;;;;;5013396;28;21026;-59
2021/04/28 11:16:53;;;;;;;12.90;9.40;;;26.40;43.90;;;;;;5013934;28;20172;-59
2021/04/28 11:19:37;;;;;;;10.77;9.63;;;25.30;43.10;;;;;;5003073;28;20426;-59
2021/04/28 11:22:23;;;;;;;10.70;8.90;;;23.90;42.50;;;;;;4993944;28;20782;-59
2021/04/28 11:25:02;;;;;;;13.63;8.90;;;23.20;43.80;;;;;;4993869;28;20456;-59
2021/04/28 11:27:45;;;;;;;9.80;8.23;;;23.00;43.90;;;;;;4993295;28;20396;-59
2021/04/28 11:30:26;;;;;;;9.20;8.20;;;23.10;43.80;;;;;;4993615;28;20412;-58
2021/04/28 11:33:17;;;;;;;9.43;7.80;;;22.40;44.10;;;;;;4994123;28;20467;-59
2021/04/28 11:35:54;;;;;;;10.60;9.10;;;22.20;46.10;;;;;;5005420;28;20415;-61
2021/04/28 11:38:24;;;;;;;11.07;9.53;;;22.20;44.50;;;;;;5013005;28;20402;-58
2021/04/28 11:41:06;;;;;;;10.80;9.23;;;22.80;43.80;;;;;;5013239;28;20403;-59
2021/04/28 11:43:41;;;;;;;10.07;8.37;;;25.30;42.00;;;;;;5012873;28;20469;-59
2021/04/28 11:46:10;;;;;;;12.00;7.93;;;26.50;40.40;;;;;;5013329;28;20437;-59
2021/04/28 11:48:38;;;;;;;10.17;9.10;;;26.20;40.40;;;;;;4996626;28;20461;-59
2021/04/28 11:51:10;;;;;;;10.43;8.47;;;25.40;40.00;;;;;;5012859;28;20410;-57
2021/04/28 11:53:57;;;;;;;11.83;6.57;;;26.00;39.70;;;;;;5012841;28;20450;-59
2021/04/28 11:56:39;;;;;;;8.90;6.30;;;27.70;38.30;;;;;;4993629;28;20483;-59
2021/04/28 11:59:18;;;;;;;8.10;7.03;;;29.10;36.80;;;;;;4994261;28;20433;-59
2021/04/28 12:01:43;;;;;;;8.40;6.40;;;29.80;35.00;;;;;;5013506;28;20826;-59
2021/04/28 12:04:10;;;;;;;6.93;6.23;;;30.00;34.10;;;;;;5012691;28;20533;-59
2021/04/28 12:06:46;;;;;;;5.83;5.33;;;29.70;33.60;;;;;;5013095;28;20210;-60
2021/04/28 12:09:33;;;;;;;8.67;7.87;;;30.10;30.70;;;;;;5013208;28;20761;-59
2021/04/28 12:12:08;;;;;;;10.90;9.00;;;31.70;31.50;;;;;;5013374;28;20482;-60
2021/04/28 12:14:34;;;;;;;7.67;4.87;;;31.30;33.20;;;;;;5012524;28;20476;-58
2021/04/28 12:16:59;;;;;;;6.43;5.80;;;31.20;29.50;;;;;;5012748;28;20403;-58
2021/04/28 12:19:26;;;;;;;5.67;5.10;;;31.40;29.80;;;;;;5012933;28;20211;-60
2021/04/28 12:22:03;;;;;;;5.70;5.10;;;31.90;29.20;;;;;;5012503;28;20664;-60
2021/04/28 12:24:37;;;;;;;4.97;4.57;;;31.20;28.30;;;;;;5013168;28;20485;-59
2021/04/28 12:27:23;;;;;;;9.43;6.90;;;30.90;29.40;;;;;;5012888;28;20414;-59
2021/04/28 12:29:50;;;;;;;10.53;7.27;;;30.40;30.10;;;;;;5012753;28;20493;-59
2021/04/28 12:32:18;;;;;;;10.97;8.93;;;30.60;31.20;;;;;;5012496;28;20403;-60
2021/04/28 12:34:45;;;;;;;11.03;8.73;;;31.30;31.70;;;;;;5012525;28;20438;-59
2021/04/28 12:37:14;;;;;;;10.53;9.53;;;31.60;30.70;;;;;;5012891;28;20418;-60
2021/04/28 12:39:40;;;;;;;13.83;10.50;;;31.40;30.50;;;;;;5016661;28;20453;-58
2021/04/28 12:42:06;;;;;;;9.97;8.97;;;30.10;31.50;;;;;;5016513;28;20407;-59
2021/04/28 12:44:35;;;;;;;12.40;9.53;;;29.20;32.80;;;;;;5015958;28;20474;-59
2021/04/28 12:47:01;;;;;;;10.53;8.90;;;28.70;33.70;;;;;;5016341;28;20411;-59
2021/04/28 12:49:26;;;;;;;10.17;8.83;;;28.60;33.90;;;;;;5016537;28;20490;-59